Terminal Aerodrome Forecast
Issued by NWS

Home | Current Version | Previous Version | Text Only | Print | Product List | Glossary On
Versions: 1 2 3 4 5 6 7 8 9 10 11 12 13
728
FTUS42 TJSJ 271722
TAFJSJ
TAF
TJSJ 271722Z 2718/2818 06012KT P6SM VCTS SCT030CB SCT050
     FM272000 08015KT P6SM VCSH SCT025 SCT050
     FM280200 10006KT P6SM SCT025
     FM281400 07015KT P6SM FEW025 SCT050=

USA.gov is the U.S. government's official web portal to all federal, state and local government web resources and services.